createdAt,value
2018-07-25T04:43:58.777Z,23.87
2018-07-25T04:45:45.988Z,24.06
2018-07-25T04:46:53.463Z,24.16
2018-07-25T04:48:01.622Z,24.34
2018-07-25T04:56:33.820Z,25.44
2018-07-25T05:07:45.806Z,26.97
2018-07-25T05:09:50.231Z,27.33
2018-07-25T05:25:58.209Z,29.64
2018-07-25T05:34:55.675Z,30.7
2018-07-25T05:37:22.032Z,30.85
2018-07-25T05:38:11.642Z,31.03
2018-07-25T05:42:14.302Z,31.56
2018-07-25T05:47:37.464Z,32.31
2018-07-25T05:58:34.382Z,33.09
2018-07-25T06:01:38.214Z,33.33
2018-07-25T06:02:21.303Z,33.4
2018-07-25T06:05:06.892Z,33.7
2018-07-25T06:11:53.542Z,34.15
2018-07-25T06:12:34.787Z,34.18
2018-07-25T06:13:15.201Z,34.18
2018-07-25T06:13:56.581Z,34.21
2018-07-25T06:14:38.145Z,34.23
2018-07-25T06:18:44.721Z,34.5
2018-07-25T06:21:02.422Z,34.38
2018-07-25T06:21:42.800Z,34.26
2018-07-25T06:22:23.577Z,34.34
2018-07-25T06:23:04.016Z,34.37
2018-07-25T06:23:44.989Z,34.45
2018-07-25T06:24:25.932Z,34.5
2018-07-25T06:25:06.744Z,34.61
2018-07-25T06:25:47.913Z,34.71
2018-07-25T06:26:30.437Z,34.64
2018-07-25T06:27:11.307Z,34.63
2018-07-25T06:27:52.028Z,34.61
2018-07-25T06:28:37.587Z,34.58
2018-07-25T06:29:20.024Z,34.65
2018-07-25T06:30:01.122Z,34.63
2018-07-25T06:30:41.570Z,34.75
2018-07-25T06:31:25.098Z,34.72
2018-07-25T06:32:06.327Z,34.81
2018-07-25T06:32:49.130Z,34.83
2018-07-25T06:33:28.479Z,34.9
2018-07-25T06:34:10.536Z,34.93
2018-07-25T06:47:15.730Z,35.73
2018-07-25T06:50:55.425Z,35.56
2018-07-25T06:51:35.910Z,35.64
2018-07-25T06:54:18.120Z,35.78
2018-07-25T06:55:03.097Z,35.71
2018-07-25T06:55:42.085Z,35.81
2018-07-25T07:19:37.107Z,36.37
2018-07-25T07:20:22.383Z,36.4
2018-07-25T07:21:07.747Z,36.38
2018-07-25T07:21:48.661Z,36.34
2018-07-25T07:22:32.949Z,36.44
2018-07-25T07:23:15.751Z,36.46
2018-07-25T07:26:08.363Z,36.38
2018-07-25T07:26:50.203Z,36.49
2018-07-25T07:27:40.345Z,36.59
2018-07-25T07:28:25.607Z,36.53
2018-07-25T07:29:06.497Z,36.56
2018-07-25T07:29:50.397Z,36.4
2018-07-25T07:30:34.607Z,36.55
2018-07-25T07:31:15.539Z,36.56
2018-07-25T07:32:00.148Z,36.56
2018-07-25T07:33:11.798Z,36.62
2018-07-25T07:34:07.712Z,36.69
2018-07-25T07:37:25.645Z,36.72
2018-07-25T07:38:07.711Z,36.6
2018-07-25T07:38:48.593Z,36.71
2018-07-25T07:39:31.635Z,36.72
2018-07-25T07:40:26.862Z,36.86
2018-07-25T07:41:08.639Z,36.87
2018-07-25T07:54:21.559Z,37.28
2018-07-25T07:56:36.053Z,37.58
2018-07-25T07:58:14.606Z,37.46
2018-07-25T07:58:59.022Z,37.47
2018-07-25T07:59:40.056Z,37.43
2018-07-25T08:00:20.714Z,37.47
2018-07-25T08:05:50.393Z,37.96
2018-07-25T08:14:49.683Z,38.1
2018-07-25T08:18:03.870Z,38.34
2018-07-25T08:19:48.767Z,38.5
2018-07-25T08:22:47.125Z,38.71
2018-07-25T08:24:57.522Z,38.82
2018-07-25T08:25:39.207Z,38.87
2018-07-25T08:26:21.431Z,38.9
2018-07-25T08:27:01.908Z,38.98
2018-07-25T08:27:44.322Z,38.92
2018-07-25T08:31:19.782Z,39.07
2018-07-25T08:32:01.901Z,39.14
2018-07-25T08:32:46.393Z,39.02
2018-07-25T08:33:26.943Z,39.07
2018-07-25T08:34:07.511Z,39.07
2018-07-25T08:34:48.124Z,39.09
2018-07-25T08:36:26.909Z,39.29
2018-07-25T08:37:09.487Z,39.35
2018-07-25T08:37:49.446Z,39.35
2018-07-25T08:40:07.410Z,39.59
2018-07-25T08:40:51.082Z,39.66
2018-07-25T08:41:31.835Z,39.53
2018-07-25T08:42:16.197Z,39.5
2018-07-25T08:42:59.078Z,39.56
2018-07-25T08:43:39.634Z,39.56
2018-07-25T08:44:20.527Z,39.59
2018-07-25T08:45:07.577Z,39.53
2018-07-25T08:45:57.558Z,39.63
2018-07-25T08:48:45.545Z,39.73
2018-07-25T08:49:26.154Z,39.7
2018-07-25T08:50:29.611Z,39.69
2018-07-25T08:51:15.205Z,39.72
2018-07-25T08:51:55.412Z,39.88
2018-07-25T08:52:38.150Z,39.91
2018-07-25T08:54:45.795Z,40.04
2018-07-25T08:55:26.380Z,40.13
2018-07-25T08:56:10.804Z,40.06
2018-07-25T09:03:21.747Z,40.24
2018-07-25T09:04:04.930Z,40.34
2018-07-25T09:04:47.738Z,40.42
2018-07-25T09:05:33.431Z,40.51
2018-07-25T09:07:55.108Z,40.54
2018-07-25T09:08:35.801Z,40.54
2018-07-25T09:09:18.383Z,40.49
2018-07-25T09:10:00.833Z,40.53
2018-07-25T09:10:43.191Z,40.57
2018-07-25T09:11:23.913Z,40.6
2018-07-25T09:12:06.886Z,40.46
2018-07-25T09:12:48.525Z,40.72
2018-07-25T09:13:29.329Z,40.66
2018-07-25T09:17:07.617Z,40.95
2018-07-25T09:19:10.761Z,40.97
2018-07-25T09:19:52.020Z,41.05
2018-07-25T09:20:34.298Z,40.92
2018-07-25T09:21:14.762Z,40.98
2018-07-25T09:21:55.764Z,41.04
2018-07-25T09:22:40.571Z,41.13
2018-07-25T09:23:20.546Z,41.25
2018-07-25T09:24:01.275Z,41.28
2018-07-25T09:25:36.165Z,41.44
2018-07-25T09:26:17.544Z,41.54
2018-07-25T09:26:58.224Z,41.44
2018-07-25T09:27:38.596Z,41.39
2018-07-25T09:28:19.287Z,41.41
2018-07-25T09:29:17.746Z,41.47
2018-07-25T09:30:01.262Z,41.28
2018-07-25T09:30:42.205Z,41.26
2018-07-25T09:31:25.113Z,41.26
2018-07-25T09:32:06.876Z,41.35
2018-07-25T09:32:47.657Z,41.36
2018-07-25T09:33:28.775Z,41.42
2018-07-25T09:34:10.932Z,41.39
2018-07-25T09:34:51.472Z,41.29
2018-07-25T09:35:35.032Z,41.16
2018-07-25T09:36:16.331Z,41.1
2018-07-25T09:36:57.106Z,41.19
2018-07-25T09:37:37.407Z,41.16
2018-07-25T09:38:17.925Z,41.12
2018-07-25T09:38:59.646Z,41.29
2018-07-25T09:39:39.126Z,41.36
2018-07-25T09:40:19.627Z,41.32
2018-07-25T09:41:01.334Z,41.31
2018-07-25T09:41:42.995Z,41.19
2018-07-25T09:42:24.238Z,41.2
2018-07-25T09:43:05.000Z,41.1
2018-07-25T09:43:45.634Z,41.07
2018-07-25T09:44:27.190Z,41.12
2018-07-25T09:45:07.887Z,41.14
2018-07-25T09:45:48.129Z,41.19
2018-07-25T09:46:31.331Z,41.17
2018-07-25T09:47:13.746Z,41.12
2018-07-25T09:47:54.216Z,41.26
2018-07-25T09:48:35.256Z,41.21
2018-07-25T09:49:15.790Z,41.33
2018-07-25T09:49:56.742Z,41.35
2018-07-25T09:50:37.573Z,41.42
2018-07-25T09:51:18.107Z,41.48
2018-07-25T09:51:58.899Z,41.5
2018-07-25T09:52:39.409Z,41.36
2018-07-25T09:53:20.073Z,41.51
2018-07-25T09:54:00.616Z,41.53
2018-07-25T09:54:41.166Z,41.55
2018-07-25T09:55:21.778Z,41.6
2018-07-25T09:56:03.585Z,41.69
2018-07-25T09:56:44.925Z,41.76
2018-07-25T09:57:25.673Z,41.73
2018-07-25T09:58:06.100Z,41.8
2018-07-25T09:58:47.021Z,41.92
2018-07-25T09:59:27.739Z,42.01
2018-07-25T10:00:09.074Z,41.97
2018-07-25T10:00:49.636Z,42.05
2018-07-25T10:01:30.862Z,42.24
2018-07-25T10:02:11.508Z,42.29
2018-07-25T10:02:52.917Z,42.27
2018-07-25T10:03:33.368Z,42.34
2018-07-25T10:04:15.503Z,42.38
2018-07-25T10:42:51.443Z,42.57
2018-07-25T10:43:31.317Z,42.55
2018-07-25T10:44:11.735Z,42.6
2018-07-25T10:44:52.260Z,42.52
2018-07-25T10:45:32.829Z,42.58
2018-07-25T10:46:13.340Z,42.7
2018-07-25T10:46:53.883Z,42.73
2018-07-25T10:47:34.401Z,42.8
2018-07-25T10:51:53.852Z,43.43
2018-07-25T10:52:34.299Z,43.43
2018-07-25T10:53:15.523Z,43.38
2018-07-25T10:53:57.027Z,43.26
2018-07-25T10:54:37.199Z,43.41
2018-07-25T10:55:20.694Z,43.4
2018-07-25T10:56:03.757Z,43.48
2018-07-25T10:56:44.393Z,43.55
2018-07-25T10:57:25.340Z,43.65
2018-07-25T10:58:06.102Z,43.7
2018-07-25T10:58:48.208Z,43.77
2018-07-25T10:59:28.669Z,43.78
2018-07-25T11:01:20.623Z,43.79
2018-07-25T11:02:13.723Z,43.81
2018-07-25T11:02:54.036Z,43.68
2018-07-25T11:03:36.029Z,43.71
2018-07-25T11:04:17.623Z,43.77
2018-07-25T11:04:58.121Z,43.72
2018-07-25T11:05:40.106Z,43.68
2018-07-25T11:06:26.171Z,43.71
2018-07-25T11:07:14.519Z,43.57
2018-07-25T11:07:56.829Z,43.53
2018-07-25T11:08:37.930Z,43.63
2018-07-25T11:09:19.213Z,43.6
2018-07-25T11:09:59.167Z,43.74
2018-07-25T11:10:41.739Z,43.6
2018-07-25T11:11:21.761Z,43.79
2018-07-25T11:12:02.287Z,43.79
2018-07-25T11:12:42.741Z,43.82
2018-07-25T11:13:23.510Z,43.84
2018-07-25T11:14:04.028Z,43.86
2018-07-25T11:14:46.378Z,44.03
2018-07-25T11:15:27.119Z,43.74
2018-07-25T11:16:07.944Z,43.79
2018-07-25T11:16:48.534Z,43.84
2018-07-25T11:17:29.342Z,43.72
2018-07-25T11:18:10.599Z,43.59
2018-07-25T11:18:51.170Z,43.5
2018-07-25T11:19:33.224Z,43.55
2018-07-25T11:20:13.846Z,43.4
2018-07-25T11:20:54.548Z,43.3
2018-07-25T11:21:35.011Z,43.31
2018-07-25T11:22:15.455Z,43.31
2018-07-25T11:22:56.020Z,43.25
2018-07-25T11:23:36.387Z,43.3
2018-07-25T11:24:33.994Z,43.41
2018-07-25T11:25:15.367Z,43.43
2018-07-25T11:25:55.761Z,43.41
2018-07-25T11:26:36.564Z,43.26
2018-07-25T11:27:17.363Z,43.3
2018-07-25T11:27:58.384Z,43.26
2018-07-25T11:28:39.066Z,43.33
2018-07-25T11:29:19.742Z,43.25
2018-07-25T11:30:00.296Z,43.26
2018-07-25T11:31:38.810Z,43.38
2018-07-25T11:32:19.228Z,43.59
2018-07-25T11:33:00.563Z,43.65
2018-07-25T11:33:41.048Z,43.67
2018-07-25T11:34:22.536Z,43.6
2018-07-25T11:35:02.695Z,43.6
2018-07-25T11:35:43.115Z,43.56
2018-07-25T11:36:24.114Z,43.41
2018-07-25T11:37:04.477Z,43.49
2018-07-25T11:38:59.427Z,43.45
2018-07-25T11:40:47.826Z,43.38
2018-07-25T11:41:28.029Z,43.5
2018-07-25T11:42:08.455Z,43.67
2018-07-25T11:42:48.947Z,43.81
2018-07-25T11:43:29.317Z,43.74
2018-07-25T11:44:10.116Z,43.81
2018-07-25T11:44:52.030Z,43.94
2018-07-25T11:45:33.040Z,43.93
2018-07-25T11:46:14.230Z,44
2018-07-25T11:46:54.709Z,44
2018-07-25T11:47:35.320Z,43.78
2018-07-25T11:48:15.951Z,43.86
2018-07-25T11:48:56.567Z,43.82
2018-07-25T11:51:11.673Z,43.96
2018-07-25T11:51:51.524Z,43.96
2018-07-25T11:52:32.027Z,44.05
2018-07-25T11:53:12.553Z,43.96
2018-07-25T11:54:59.931Z,43.72
2018-07-25T11:55:40.393Z,43.71
2018-07-25T11:57:33.113Z,43.68
2018-07-25T11:59:32.776Z,43.3
2018-07-25T12:02:08.319Z,43.57
2018-07-25T12:02:46.603Z,43.63
2018-07-25T12:03:27.150Z,43.74
2018-07-25T12:04:07.518Z,43.77
2018-07-25T12:04:47.993Z,43.71
2018-07-25T12:05:28.469Z,43.7
2018-07-25T12:06:09.929Z,43.63
2018-07-25T12:06:51.218Z,43.78
2018-07-25T12:07:31.775Z,43.91
2018-07-25T12:08:12.150Z,43.98
2018-07-25T12:08:53.611Z,44.05
2018-07-25T12:09:34.023Z,44.03
2018-07-25T12:10:14.718Z,43.97
2018-07-25T12:10:56.779Z,43.94
2018-07-25T12:11:38.236Z,43.97
2018-07-25T12:12:19.754Z,44.08
2018-07-25T12:13:00.611Z,44.24
2018-07-25T12:13:41.869Z,44.28
2018-07-25T12:14:23.109Z,44.34
2018-07-25T12:15:03.421Z,44.47
2018-07-25T12:15:43.787Z,44.67
2018-07-25T12:16:24.237Z,44.69
2018-07-25T12:17:04.739Z,44.69
2018-07-25T12:17:46.083Z,44.73
2018-07-25T12:18:26.090Z,44.62
2018-07-25T12:19:06.440Z,44.69
2018-07-25T12:19:46.999Z,44.86
2018-07-25T12:20:27.435Z,44.89
2018-07-25T12:21:07.922Z,44.84
2018-07-25T12:21:48.455Z,44.79
2018-07-25T12:22:29.520Z,44.78
2018-07-25T12:23:09.830Z,44.79
2018-07-25T12:23:50.714Z,44.82
2018-07-25T12:24:31.351Z,44.66
2018-07-25T12:25:11.759Z,44.79
2018-07-25T12:25:52.662Z,44.73
2018-07-25T12:26:33.638Z,44.86
2018-07-25T12:27:14.418Z,44.78
2018-07-25T12:27:55.169Z,44.91
2018-07-25T12:28:35.598Z,44.97
2018-07-25T12:29:17.082Z,45.05
2018-07-25T12:29:57.060Z,45.01
2018-07-25T12:30:37.518Z,44.7
2018-07-25T12:31:19.415Z,44.18
2018-07-25T12:31:59.952Z,43.91
2018-07-25T12:32:41.088Z,44.02
2018-07-25T12:33:22.532Z,44.08
2018-07-25T12:34:03.373Z,43.94
2018-07-25T12:36:02.450Z,43.78
2018-07-25T12:36:44.551Z,43.81
2018-07-25T12:37:25.577Z,43.81
2018-07-25T12:38:09.432Z,43.84
2018-07-25T12:38:49.998Z,43.91
2018-07-25T12:39:31.102Z,43.96
2018-07-25T12:40:11.238Z,43.97
2018-07-25T12:40:51.683Z,43.77
2018-07-25T12:41:35.949Z,43.55
2018-07-25T12:42:16.739Z,43.31
2018-07-25T12:42:57.188Z,43.26
2018-07-25T12:43:37.399Z,43.29
2018-07-25T12:44:18.180Z,43.37
2018-07-25T12:44:59.297Z,43.59
2018-07-25T12:45:39.322Z,43.68
2018-07-25T12:46:19.919Z,43.79
2018-07-25T12:47:00.654Z,43.87
2018-07-25T12:47:41.389Z,43.86
2018-07-25T12:48:22.852Z,43.97
2018-07-25T12:49:02.902Z,44.05
2018-07-25T12:49:44.130Z,44.2
2018-07-25T12:50:24.554Z,44.18
2018-07-25T12:51:06.308Z,44.05
2018-07-25T12:51:46.313Z,43.86
2018-07-25T12:52:28.841Z,43.82
2018-07-25T12:53:09.777Z,43.68
2018-07-25T12:53:51.322Z,43.59
2018-07-25T12:54:31.819Z,43.49
2018-07-25T12:55:13.065Z,43.3
2018-07-25T12:55:55.014Z,43.26
2018-07-25T12:56:36.482Z,43.33
2018-07-25T12:57:17.668Z,43.14
2018-07-25T12:57:59.335Z,43.1
2018-07-25T12:58:39.152Z,42.79
2018-07-25T12:59:20.973Z,42.41
2018-07-25T13:00:01.903Z,42.27
2018-07-25T13:00:41.541Z,42.05
2018-07-25T13:01:22.828Z,42.04
2018-07-25T13:02:02.971Z,41.88
2018-07-25T13:02:44.307Z,41.97
2018-07-25T13:03:24.456Z,41.97
2018-07-25T13:04:06.825Z,42.11
2018-07-25T13:04:46.794Z,42.26
2018-07-25T13:05:27.256Z,42.36
2018-07-25T13:06:08.817Z,42.55
2018-07-25T13:06:49.049Z,42.7
2018-07-25T13:07:30.831Z,42.83
2018-07-25T13:08:10.530Z,42.87
2018-07-25T13:08:51.132Z,43.01
2018-07-25T13:09:31.877Z,43.1
2018-07-25T13:10:12.324Z,43.33
2018-07-25T13:13:34.068Z,44.06
2018-07-25T13:14:12.358Z,44.13
2018-07-25T13:14:53.015Z,44.28
2018-07-25T13:15:33.580Z,44.44
2018-07-25T13:16:15.972Z,44.5
2018-07-25T13:16:57.192Z,44.54
2018-07-25T13:17:38.036Z,44.66
2018-07-25T13:18:18.879Z,44.76
2018-07-25T13:19:00.388Z,44.84
2018-07-25T13:19:41.201Z,44.86
2018-07-25T13:20:21.661Z,44.88
2018-07-25T13:21:02.269Z,44.92
2018-07-25T13:21:42.737Z,44.92
2018-07-25T13:22:23.968Z,44.82
2018-07-25T13:23:04.299Z,44.94
2018-07-25T13:26:47.422Z,45.16
2018-07-25T13:27:26.809Z,45.23
2018-07-25T13:28:06.570Z,45.16
2018-07-25T13:28:47.258Z,45.16
2018-07-25T13:29:27.792Z,45.19
2018-07-25T13:30:08.154Z,44.92
2018-07-25T13:30:48.614Z,44.81
2018-07-25T13:31:29.013Z,44.51
2018-07-25T13:32:09.512Z,44.31
2018-07-25T13:32:50.038Z,43.9
2018-07-25T13:33:30.469Z,43.7
2018-07-25T13:34:10.942Z,43.56
2018-07-25T13:34:55.205Z,43.31
2018-07-25T13:35:35.740Z,43.41
2018-07-25T13:36:16.972Z,43.56
2018-07-25T13:36:57.756Z,43.7
2018-07-25T13:37:39.319Z,43.79
2018-07-25T13:38:19.488Z,43.81
2018-07-25T13:39:00.483Z,43.75
2018-07-25T13:39:40.890Z,43.68
2018-07-25T13:40:21.875Z,43.41
2018-07-25T13:41:03.094Z,43.29
2018-07-25T13:41:43.616Z,43.14
2018-07-25T13:42:23.991Z,43.2
2018-07-25T13:43:05.277Z,43.22
2018-07-25T13:43:44.968Z,43.33
2018-07-25T13:44:25.513Z,43.31
2018-07-25T13:45:06.072Z,43.29
2018-07-25T13:45:46.762Z,43.22
2018-07-25T13:46:27.282Z,43.08
2018-07-25T13:47:07.636Z,42.94
2018-07-25T13:47:48.357Z,42.84
2018-07-25T13:48:29.070Z,42.87
2018-07-25T13:49:10.621Z,42.82
2018-07-25T13:49:51.018Z,42.83
2018-07-25T13:50:31.861Z,42.68
2018-07-25T13:51:12.890Z,42.68
2018-07-25T13:51:54.820Z,42.52
2018-07-25T13:52:35.045Z,42.46
2018-07-25T13:53:15.683Z,42.43
2018-07-25T13:53:56.303Z,42.27
2018-07-25T13:54:37.067Z,42.15
2018-07-25T13:55:18.181Z,42.05
2018-07-25T13:55:59.217Z,41.97
2018-07-25T13:56:41.319Z,42.02
2018-07-25T13:57:21.808Z,42.04
2018-07-25T13:58:02.524Z,41.93
2018-07-25T13:58:43.980Z,41.88
2018-07-25T13:59:24.654Z,41.74
2018-07-25T14:00:05.493Z,41.67
2018-07-25T14:00:46.047Z,41.66
2018-07-25T14:01:27.331Z,41.55
2018-07-25T14:02:07.720Z,41.55
2018-07-25T14:02:48.212Z,41.54
2018-07-25T14:03:30.027Z,41.48
2018-07-25T14:04:10.605Z,41.38
2018-07-25T14:04:51.632Z,41.44
2018-07-25T14:05:32.039Z,41.44
2018-07-25T14:06:12.519Z,41.44
2018-07-25T14:06:53.154Z,41.39
2018-07-25T14:07:33.599Z,41.44
2018-07-25T14:08:13.943Z,41.51
2018-07-25T14:08:54.338Z,41.54
2018-07-25T14:09:35.030Z,41.63
2018-07-25T14:10:15.753Z,41.82
2018-07-25T14:10:58.599Z,41.82
2018-07-25T14:11:39.461Z,41.82
2018-07-25T14:12:19.927Z,41.96
2018-07-25T14:13:00.319Z,42
2018-07-25T14:13:41.894Z,42.07
2018-07-25T14:14:27.495Z,42.09
2018-07-25T14:15:07.923Z,42.01
2018-07-25T14:15:48.720Z,42.17
2018-07-25T14:16:29.665Z,42.27
2018-07-25T14:17:09.981Z,42.39
2018-07-25T14:17:50.304Z,42.41
2018-07-25T14:18:31.006Z,42.46
2018-07-25T14:19:11.374Z,42.57
2018-07-25T14:19:51.814Z,42.7
2018-07-25T14:20:32.256Z,42.75
2018-07-25T14:21:12.789Z,42.67
2018-07-25T14:21:53.179Z,42.87
2018-07-25T14:22:35.126Z,42.94
2018-07-25T14:23:15.607Z,43.06
2018-07-25T14:23:56.651Z,43.11
2018-07-25T14:24:37.209Z,43.18
2018-07-25T14:25:18.598Z,43.22
2018-07-25T14:25:59.489Z,43.25
2018-07-25T14:26:42.670Z,43.45
2018-07-25T14:27:23.031Z,43.4
2018-07-25T14:28:03.579Z,43.57
2018-07-25T14:28:45.783Z,43.55
2018-07-25T14:29:27.529Z,43.53
2018-07-25T14:30:09.684Z,43.67
2018-07-25T14:38:18.841Z,43.91
2018-07-25T14:43:02.235Z,42.91
2018-07-25T14:43:42.204Z,42.84
2018-07-25T14:44:22.571Z,42.68
2018-07-25T14:46:37.780Z,42.42
2018-07-25T14:47:17.894Z,42.58
2018-07-25T14:47:58.909Z,42.61
2018-07-25T14:48:39.343Z,42.58
2018-07-25T14:49:20.148Z,42.41
2018-07-25T14:50:00.407Z,42.36
2018-07-25T14:50:40.820Z,42.33
2018-07-25T14:51:21.505Z,42.2
2018-07-25T14:52:02.450Z,42.17
2018-07-25T14:52:43.006Z,42.04
2018-07-25T14:53:23.414Z,41.88
2018-07-25T14:54:05.253Z,41.92
2018-07-25T14:54:46.491Z,41.67
2018-07-25T14:55:27.068Z,41.6
2018-07-25T14:56:07.498Z,41.7
2018-07-25T14:56:48.906Z,41.53
2018-07-25T14:57:29.268Z,41.44
2018-07-25T14:58:09.760Z,41.39
2018-07-25T14:58:51.166Z,41.2
2018-07-25T14:59:31.758Z,41.17
2018-07-25T15:00:12.936Z,41.19
2018-07-25T15:00:53.532Z,40.86
2018-07-25T15:01:34.109Z,40.63
2018-07-25T15:02:15.491Z,40.26
2018-07-25T15:02:56.253Z,39.82
2018-07-25T15:03:36.720Z,39.27
2018-07-25T15:04:17.196Z,38.95
2018-07-25T15:04:57.583Z,38.67
2018-07-25T15:05:39.043Z,38.52
2018-07-25T15:06:19.446Z,38.45
2018-07-25T15:06:59.808Z,38.21
2018-07-25T15:07:40.308Z,37.87
2018-07-25T15:08:21.013Z,37.69
2018-07-25T15:09:01.995Z,37.68
2018-07-25T15:09:42.676Z,37.5
2018-07-25T15:10:23.226Z,37.42
2018-07-25T15:11:03.791Z,37.35
2018-07-25T15:11:44.250Z,37.31
2018-07-25T15:12:24.838Z,37.02
2018-07-25T15:13:05.629Z,37.12
2018-07-25T15:13:46.033Z,36.96
2018-07-25T15:14:26.480Z,36.94
2018-07-25T15:15:07.761Z,36.94
2018-07-25T15:15:48.289Z,36.97
2018-07-25T15:16:28.916Z,36.9
2018-07-25T15:17:09.241Z,36.93
2018-07-25T15:17:49.915Z,36.89
2018-07-25T15:18:30.374Z,36.84
2018-07-25T15:19:11.391Z,36.93
2018-07-25T15:19:51.868Z,36.89
2018-07-25T15:20:32.851Z,36.93
2018-07-25T15:21:13.510Z,36.93
2018-07-25T15:21:53.884Z,36.84
2018-07-25T15:22:34.408Z,36.79
2018-07-25T15:23:14.918Z,36.65
2018-07-25T15:23:55.390Z,36.74
2018-07-25T15:24:35.848Z,36.72
2018-07-25T15:25:16.883Z,36.68
2018-07-25T15:25:57.241Z,36.65
2018-07-25T15:26:37.757Z,36.69
2018-07-25T15:27:18.329Z,36.71
2018-07-25T15:27:58.858Z,36.65
2018-07-25T15:28:40.264Z,36.67
2018-07-25T15:29:21.828Z,36.74
2018-07-25T15:30:02.549Z,36.75
2018-07-25T15:30:43.228Z,36.74
2018-07-25T15:31:23.830Z,36.75
2018-07-25T15:32:04.148Z,36.89
2018-07-25T15:32:44.706Z,36.9
2018-07-25T15:33:25.116Z,36.82
2018-07-25T15:34:06.285Z,36.78
2018-07-25T15:34:46.815Z,36.65
2018-07-25T15:35:27.267Z,36.59
2018-07-25T15:36:08.041Z,36.52
2018-07-25T15:36:50.077Z,36.46
2018-07-25T15:37:30.573Z,36.38
2018-07-25T15:38:11.050Z,36.4
2018-07-25T15:38:52.755Z,36.38
2018-07-25T15:39:33.365Z,36.37
2018-07-25T15:40:13.717Z,36.41
2018-07-25T15:40:55.389Z,36.44
2018-07-25T15:41:36.236Z,36.4
2018-07-25T15:42:17.230Z,36.44
2018-07-25T15:42:57.591Z,36.62
2018-07-25T15:43:38.231Z,36.68
2018-07-25T15:44:20.042Z,36.67
2018-07-25T15:44:59.595Z,36.78
2018-07-25T15:45:40.033Z,36.77
2018-07-25T15:46:20.488Z,36.9
2018-07-25T15:47:00.792Z,36.9
2018-07-25T15:47:41.362Z,36.91
2018-07-25T15:48:22.594Z,36.93
2018-07-25T15:49:02.806Z,36.91
2018-07-25T15:49:43.217Z,37.13
2018-07-25T15:50:25.539Z,37.18
2018-07-25T15:51:06.001Z,37.23
2018-07-25T15:51:46.513Z,37.21
2018-07-25T15:52:27.123Z,37.18
2018-07-25T15:53:07.613Z,37.09
2018-07-25T15:53:48.629Z,37.08
2018-07-25T15:54:29.130Z,37.04
2018-07-25T15:55:09.834Z,37.06
2018-07-25T15:55:50.283Z,36.9
2018-07-25T15:56:30.747Z,36.89
2018-07-25T15:57:11.699Z,36.96
2018-07-25T15:57:51.696Z,36.96
2018-07-25T15:58:32.467Z,36.86
2018-07-25T15:59:12.644Z,36.74
2018-07-25T15:59:53.429Z,36.71
2018-07-25T16:00:34.427Z,36.6
2018-07-25T16:01:16.201Z,36.56
2018-07-25T16:01:56.565Z,36.59
2018-07-25T16:02:36.960Z,36.64
2018-07-25T16:03:17.454Z,36.64
2018-07-25T16:03:57.867Z,36.79
2018-07-25T16:04:40.027Z,36.84
2018-07-25T16:05:20.332Z,36.87
2018-07-25T16:45:33.057Z,37.01
2018-07-25T16:52:48.336Z,37.12
2018-07-25T16:53:36.532Z,37.11
2018-07-25T16:56:57.599Z,37.27
2018-07-25T16:57:37.873Z,37.23
2018-07-25T16:58:18.268Z,37.34
2018-07-25T16:58:58.694Z,37.33
2018-07-25T16:59:39.148Z,37.39
2018-07-25T17:00:19.560Z,37.45
2018-07-25T17:01:00.011Z,37.56
2018-07-25T17:01:42.062Z,37.59
2018-07-25T17:02:22.513Z,37.66
2018-07-25T17:03:02.926Z,37.73
2018-07-25T17:03:43.262Z,37.75
2018-07-25T17:04:23.684Z,37.78
2018-07-25T17:05:04.931Z,37.81
2018-07-25T17:05:45.450Z,37.85
2018-07-25T17:06:25.792Z,37.9
2018-07-25T17:07:06.775Z,37.9
2018-07-25T17:07:48.905Z,37.96
2018-07-25T17:08:28.753Z,37.91
2018-07-25T17:09:09.133Z,37.82
2018-07-25T17:09:49.704Z,37.84
2018-07-25T17:10:30.017Z,37.84
2018-07-25T17:11:10.499Z,37.95
2018-07-25T17:11:51.149Z,37.95
2018-07-25T17:12:32.175Z,37.97
2018-07-25T17:13:12.759Z,37.91
2018-07-25T17:13:54.230Z,37.91
2018-07-25T17:14:34.670Z,37.97
2018-07-25T17:15:15.559Z,37.95
2018-07-25T17:15:55.672Z,37.93
2018-07-25T17:16:36.036Z,37.95
2018-07-25T17:17:16.504Z,37.91
2018-07-25T17:17:56.862Z,37.97
2018-07-25T17:18:38.309Z,38.07
2018-07-25T17:19:18.678Z,38.06
2018-07-25T17:19:59.136Z,38.04
2018-07-25T17:20:39.565Z,37.97
2018-07-25T17:21:20.136Z,38.12
2018-07-25T17:22:00.962Z,38.12
2018-07-25T17:22:41.559Z,37.96
2018-07-25T17:23:22.019Z,38.09
2018-07-25T17:24:02.531Z,38.06
2018-07-25T17:24:42.925Z,38.07
2018-07-25T17:25:23.591Z,38.14
2018-07-25T17:26:05.137Z,38.15
2018-07-25T17:26:45.481Z,38.25
2018-07-25T17:27:26.042Z,38.07
2018-07-25T17:28:06.465Z,38.07
2018-07-25T17:28:46.819Z,38.1
2018-07-25T17:29:27.231Z,38.06
2018-07-25T17:30:07.688Z,38.09
2018-07-25T17:30:48.102Z,38.07
2018-07-25T17:31:28.542Z,38.15
2018-07-25T17:32:09.034Z,38.19
2018-07-25T17:32:51.230Z,38.18
2018-07-25T17:33:31.706Z,38.22
2018-07-25T17:34:12.105Z,38.04
2018-07-25T17:34:52.556Z,38.14
2018-07-25T17:35:33.062Z,38.09
2018-07-25T17:36:13.397Z,38.03
2018-07-25T17:36:53.868Z,38.07
2018-07-25T17:37:34.340Z,37.93
2018-07-25T17:38:14.794Z,37.91
2018-07-25T17:38:55.163Z,37.9
2018-07-25T17:39:35.684Z,37.85
2018-07-25T17:40:16.354Z,37.78
2018-07-25T17:40:56.520Z,37.8
2018-07-25T17:41:37.059Z,37.66
2018-07-25T17:42:18.541Z,37.66
2018-07-25T17:42:59.894Z,37.43
2018-07-25T17:43:40.809Z,37.35
2018-07-25T17:44:21.303Z,37.23
2018-07-25T17:45:02.044Z,37.21
2018-07-25T17:45:42.510Z,37.23
2018-07-25T17:46:22.932Z,37.2
2018-07-25T17:47:03.475Z,37.18
2018-07-25T17:47:43.933Z,37.12
2018-07-25T17:48:24.580Z,37.13
2018-07-25T17:49:05.383Z,37.13
2018-07-25T17:49:46.026Z,37.02
2018-07-25T17:50:26.548Z,36.97
2018-07-25T17:51:07.012Z,37.02
2018-07-25T17:51:48.803Z,37.06
2018-07-25T17:52:29.218Z,36.93
2018-07-25T17:53:09.902Z,36.9
2018-07-25T17:53:50.648Z,36.83
2018-07-25T17:54:31.407Z,36.83
2018-07-25T17:55:11.969Z,36.69
2018-07-25T17:55:52.434Z,36.59
2018-07-25T17:56:32.766Z,36.48
2018-07-25T17:57:13.594Z,36.4
2018-07-25T17:57:54.221Z,36.33
2018-07-25T17:58:34.921Z,36.27
2018-07-25T17:59:15.362Z,36.22
2018-07-25T17:59:55.779Z,36.16
2018-07-25T18:00:36.337Z,36.19
2018-07-25T18:01:16.887Z,36.12
2018-07-25T18:01:57.559Z,36
2018-07-25T18:02:38.186Z,35.99
2018-07-25T18:03:18.642Z,36.05
2018-07-25T18:03:59.098Z,36.02
2018-07-25T18:04:39.535Z,36
2018-07-25T18:05:19.938Z,36.02
2018-07-25T18:06:02.131Z,36.02
2018-07-25T18:06:42.752Z,35.99
2018-07-25T18:07:23.188Z,36.02
2018-07-25T18:08:03.602Z,35.91
2018-07-25T18:08:44.751Z,35.87
2018-07-25T18:09:25.154Z,35.89
2018-07-25T18:10:05.752Z,35.92
2018-07-25T18:10:46.037Z,35.85
2018-07-25T18:11:26.536Z,35.87
2018-07-25T18:12:06.970Z,35.84
2018-07-25T18:12:47.647Z,35.81
2018-07-25T18:13:28.694Z,35.69
2018-07-25T18:14:08.720Z,35.77
2018-07-25T18:14:49.376Z,35.69
2018-07-25T18:15:29.806Z,35.76
2018-07-25T18:16:11.001Z,35.74
2018-07-25T18:16:52.406Z,35.66
2018-07-25T18:17:32.878Z,35.59
2018-07-25T18:18:13.657Z,35.66
2018-07-25T18:18:54.910Z,35.55
2018-07-25T18:19:36.326Z,35.52
2018-07-25T18:20:16.745Z,35.46
2018-07-25T18:20:57.611Z,35.34
2018-07-25T18:21:38.003Z,35.18
2018-07-25T18:22:18.417Z,35.13
2018-07-25T18:22:58.957Z,35.07
2018-07-25T18:23:39.254Z,34.9
2018-07-25T18:24:19.691Z,34.9
2018-07-25T18:25:00.393Z,34.88
2018-07-25T18:25:40.846Z,34.84
2018-07-25T18:26:21.676Z,34.76
2018-07-25T18:27:02.029Z,34.78
2018-07-25T18:27:42.576Z,34.78
2018-07-25T18:28:23.080Z,34.69
2018-07-25T18:29:04.397Z,34.64
2018-07-25T18:29:45.359Z,34.69
2018-07-25T18:30:26.091Z,34.69
2018-07-25T18:31:06.571Z,34.58
2018-07-25T18:31:47.121Z,34.52
2018-07-25T18:32:27.604Z,34.48
2018-07-25T18:33:08.522Z,34.42
2018-07-25T18:33:48.797Z,34.4
2018-07-25T18:34:29.265Z,34.4
2018-07-25T18:35:09.664Z,34.48
2018-07-25T18:35:50.108Z,34.4
2018-07-25T18:36:30.581Z,34.45
2018-07-25T18:37:11.497Z,34.42
2018-07-25T18:37:52.109Z,34.4
2018-07-25T18:38:32.750Z,34.28
2018-07-25T18:39:13.162Z,34.33
2018-07-25T18:39:54.022Z,34.33
2018-07-25T18:40:34.572Z,34.27
2018-07-25T18:41:14.974Z,34.18
2018-07-25T18:41:56.407Z,34.14
2018-07-25T18:42:37.272Z,34.14